createdAt,value
2022-10-15T00:00:06.862Z,95901.38
2022-10-15T00:02:33.273Z,95900.19
2022-10-15T00:04:59.763Z,95893.03
2022-10-15T00:07:26.577Z,95896.50
2022-10-15T00:09:53.160Z,95895.69
2022-10-15T00:12:19.517Z,95897.50
2022-10-15T00:14:45.904Z,95890.59
2022-10-15T00:17:12.289Z,95885.91
2022-10-15T00:19:38.664Z,95886.72
2022-10-15T00:22:05.051Z,95878.78
2022-10-15T00:24:31.466Z,95884.28
2022-10-15T00:26:57.904Z,95880.19
2022-10-15T00:29:24.309Z,95878.16
2022-10-15T00:31:50.701Z,95877.34
2022-10-15T00:34:17.062Z,95871.66
2022-10-15T00:36:43.492Z,95884.66
2022-10-15T00:39:10.602Z,95882.41
2022-10-15T00:41:39.982Z,95883.44
2022-10-15T00:44:21.693Z,95884.22
2022-10-15T00:47:01.084Z,95881.38
2022-10-15T00:49:30.768Z,95880.56
2022-10-15T00:51:59.328Z,95894.78
2022-10-15T00:54:27.579Z,95890.94
2022-10-15T00:56:55.229Z,95888.69
2022-10-15T00:59:24.151Z,95876.06
2022-10-15T01:01:50.658Z,95874.25
2022-10-15T01:04:18.936Z,95872.59
2022-10-15T01:06:45.929Z,95875.25
2022-10-15T01:09:12.415Z,95872.03
2022-10-15T01:11:38.812Z,95870.38
2022-10-15T01:14:25.452Z,95869.38
2022-10-15T01:16:54.638Z,95867.72
2022-10-15T01:19:40.984Z,95873.22
2022-10-15T01:22:11.003Z,95873.41
2022-10-15T01:25:03.577Z,95875.66
2022-10-15T01:27:38.696Z,95880.09
2022-10-15T01:30:12.205Z,95881.94
2022-10-15T01:32:43.639Z,95882.53
2022-10-15T01:35:20.840Z,95872.97
2022-10-15T01:38:03.250Z,95874.78
2022-10-15T01:40:35.972Z,95870.25
2022-10-15T01:43:09.509Z,95863.56
2022-10-15T01:45:57.227Z,95873.72
2022-10-15T01:48:26.289Z,95864.56
2022-10-15T01:50:54.436Z,95875.50
2022-10-15T01:53:26.588Z,95868.19
2022-10-15T01:56:02.456Z,95868.19
2022-10-15T01:58:29.823Z,95860.88
2022-10-15T02:00:57.379Z,95859.22
2022-10-15T02:03:24.393Z,95855.16
2022-10-15T02:05:55.604Z,95858.38
2022-10-15T02:08:45.656Z,95857.16
2022-10-15T02:11:14.539Z,95860.00
2022-10-15T02:13:59.598Z,95855.09
2022-10-15T02:16:41.227Z,95860.75
2022-10-15T02:19:26.570Z,95847.38
2022-10-15T02:22:06.462Z,95849.81
2022-10-15T02:24:35.469Z,95855.91
2022-10-15T02:27:03.533Z,95852.66
2022-10-15T02:29:32.417Z,95851.47
2022-10-15T02:32:01.011Z,95856.75
2022-10-15T02:34:29.402Z,95856.34
2022-10-15T02:36:58.110Z,95850.03
2022-10-15T02:39:24.762Z,95852.88
2022-10-15T02:41:52.821Z,95851.47
2022-10-15T02:44:19.507Z,95840.47
2022-10-15T02:46:45.914Z,95836.81
2022-10-15T02:49:12.319Z,95845.94
2022-10-15T02:51:38.777Z,95841.66
2022-10-15T02:54:05.985Z,95839.25
2022-10-15T02:56:32.440Z,95831.75
2022-10-15T02:58:58.811Z,95828.53
2022-10-15T03:01:25.336Z,95835.84
2022-10-15T03:03:51.836Z,95838.06
2022-10-15T03:06:18.222Z,95842.91
2022-10-15T03:08:44.641Z,95839.25
2022-10-15T03:11:11.846Z,95841.72
2022-10-15T03:13:38.941Z,95833.53
2022-10-15T03:16:06.291Z,95838.47
2022-10-15T03:18:36.749Z,95842.13
2022-10-15T03:21:06.497Z,95836.84
2022-10-15T03:26:00.217Z,95841.75
2022-10-15T03:28:26.744Z,95835.63
2022-10-15T03:30:53.126Z,95827.72
2022-10-15T03:33:21.863Z,95836.47
2022-10-15T03:35:50.890Z,95823.47
2022-10-15T03:38:17.261Z,95835.22
2022-10-15T03:40:45.211Z,95835.84
2022-10-15T03:43:11.598Z,95829.53
2022-10-15T03:45:37.975Z,95834.25
2022-10-15T03:48:04.606Z,95825.94
2022-10-15T03:50:31.093Z,95820.84
2022-10-15T03:52:57.540Z,95822.47
2022-10-15T03:55:23.907Z,95822.47
2022-10-15T03:57:50.288Z,95823.09
2022-10-15T04:00:16.753Z,95813.34
2022-10-15T04:02:43.124Z,95819.03
2022-10-15T04:05:09.511Z,95811.72
2022-10-15T04:07:35.972Z,95808.47
2022-10-15T04:10:02.394Z,95805.84
2022-10-15T04:12:28.822Z,95810.09
2022-10-15T04:14:55.210Z,95808.09
2022-10-15T04:17:21.644Z,95806.06
2022-10-15T04:19:48.000Z,95803.22
2022-10-15T04:22:14.389Z,95805.44
2022-10-15T04:24:40.771Z,95807.06
2022-10-15T04:27:07.666Z,95812.94
2022-10-15T04:29:34.138Z,95804.81
2022-10-15T04:32:00.537Z,95805.84
2022-10-15T04:34:27.254Z,95799.13
2022-10-15T04:36:53.626Z,95798.72
2022-10-15T04:39:20.093Z,95785.34
2022-10-15T04:41:46.477Z,95793.06
2022-10-15T04:44:12.903Z,95797.94
2022-10-15T04:46:39.282Z,95805.25
2022-10-15T04:49:05.687Z,95805.66
2022-10-15T04:51:32.074Z,95794.88
2022-10-15T04:53:58.438Z,95792.66
2022-10-15T04:56:24.804Z,95801.22
2022-10-15T04:58:51.410Z,95803.84
2022-10-15T05:01:19.639Z,95800.19
2022-10-15T05:03:47.076Z,95796.38
2022-10-15T05:06:15.556Z,95796.53
2022-10-15T05:08:42.465Z,95803.84
2022-10-15T05:11:14.048Z,95793.09
2022-10-15T05:13:40.684Z,95790.66
2022-10-15T05:16:10.187Z,95787.44
2022-10-15T05:18:36.570Z,95795.56
2022-10-15T05:21:02.989Z,95801.25
2022-10-15T05:23:29.363Z,95800.03
2022-10-15T05:25:58.932Z,95813.22
2022-10-15T05:28:25.335Z,95812.63
2022-10-15T05:30:51.737Z,95812.63
2022-10-15T05:33:18.102Z,95804.50
2022-10-15T05:35:44.520Z,95806.13
2022-10-15T05:38:10.943Z,95792.09
2022-10-15T05:40:37.352Z,95796.81
2022-10-15T05:43:03.957Z,95790.28
2022-10-15T05:45:30.318Z,95791.53
2022-10-15T05:47:56.752Z,95796.19
2022-10-15T05:50:23.435Z,95793.94
2022-10-15T05:52:49.812Z,95798.81
2022-10-15T05:55:16.375Z,95795.78
2022-10-15T05:57:42.721Z,95795.78
2022-10-15T06:00:09.346Z,95790.28
2022-10-15T06:02:35.828Z,95798.84
2022-10-15T06:05:02.280Z,95807.38
2022-10-15T06:07:29.117Z,95806.19
2022-10-15T06:09:55.559Z,95801.47
2022-10-15T06:12:21.926Z,95805.75
2022-10-15T06:14:48.289Z,95817.94
2022-10-15T06:17:14.674Z,95812.66
2022-10-15T06:19:41.116Z,95824.88
2022-10-15T06:22:07.556Z,95816.53
2022-10-15T06:24:34.045Z,95815.53
2022-10-15T06:27:00.466Z,95815.53
2022-10-15T06:29:26.849Z,95821.41
2022-10-15T06:31:53.265Z,95821.00
2022-10-15T06:34:19.659Z,95822.25
2022-10-15T06:36:46.093Z,95819.19
2022-10-15T06:39:12.467Z,95820.44
2022-10-15T06:41:38.816Z,95818.00
2022-10-15T06:44:05.203Z,95824.91
2022-10-15T06:46:31.569Z,95831.59
2022-10-15T06:48:57.964Z,95827.31
2022-10-15T06:51:24.335Z,95830.94
2022-10-15T06:53:50.766Z,95829.50
2022-10-15T06:56:17.288Z,95829.47
2022-10-15T06:58:43.808Z,95834.94
2022-10-15T07:01:10.410Z,95824.25
2022-10-15T07:03:39.023Z,95833.81
2022-10-15T07:06:06.699Z,95835.56
2022-10-15T07:08:33.320Z,95834.84
2022-10-15T07:11:03.760Z,95839.41
2022-10-15T07:13:30.737Z,95839.72
2022-10-15T07:15:57.122Z,95844.13
2022-10-15T07:18:23.508Z,95854.63
2022-10-15T07:20:49.946Z,95850.06
2022-10-15T07:23:16.311Z,95856.16
2022-10-15T07:25:42.667Z,95855.25
2022-10-15T07:28:09.093Z,95857.22
2022-10-15T07:30:35.532Z,95873.47
2022-10-15T07:33:02.070Z,95864.00
2022-10-15T07:35:28.681Z,95867.59
2022-10-15T07:37:55.313Z,95875.31
2022-10-15T07:40:21.848Z,95856.78
2022-10-15T07:42:55.322Z,95858.31
2022-10-15T07:45:22.126Z,95859.50
2022-10-15T07:47:48.534Z,95861.88
2022-10-15T07:50:15.148Z,95851.59
2022-10-15T07:52:41.529Z,95861.00
2022-10-15T07:55:08.261Z,95862.59
2022-10-15T07:57:34.657Z,95867.06
2022-10-15T08:00:01.002Z,95865.09
2022-10-15T08:02:27.445Z,95865.69
2022-10-15T08:04:53.843Z,95867.91
2022-10-15T08:07:20.282Z,95860.66
2022-10-15T08:12:17.982Z,95867.13
2022-10-15T08:14:44.428Z,95878.13
2022-10-15T08:17:11.055Z,95865.53
2022-10-15T08:19:37.412Z,95879.81
2022-10-15T08:22:03.936Z,95868.81
2022-10-15T08:24:30.689Z,95876.72
2022-10-15T08:26:57.611Z,95869.69
2022-10-15T08:29:24.207Z,95871.69
2022-10-15T08:31:51.230Z,95857.13
2022-10-15T08:34:17.629Z,95867.88
2022-10-15T08:36:44.016Z,95868.13
2022-10-15T08:39:10.445Z,95870.47
2022-10-15T08:41:39.580Z,95865.84
2022-10-15T08:44:07.037Z,95868.16
2022-10-15T08:46:36.730Z,95875.94
2022-10-15T08:49:03.662Z,95868.88
2022-10-15T08:51:42.604Z,95874.09
2022-10-15T08:54:13.354Z,95860.31
2022-10-15T08:56:43.164Z,95877.22
2022-10-15T08:59:15.520Z,95875.69
2022-10-15T09:01:50.938Z,95873.97
2022-10-15T09:04:20.481Z,95879.41
2022-10-15T09:06:46.987Z,95879.03
2022-10-15T09:09:16.445Z,95891.34
2022-10-15T09:11:45.812Z,95885.06
2022-10-15T09:14:15.618Z,95895.72
2022-10-15T09:16:43.337Z,95901.06
2022-10-15T09:19:18.131Z,95890.75
2022-10-15T09:21:45.612Z,95902.22
2022-10-15T09:24:13.216Z,95898.03
2022-10-15T09:26:59.026Z,95904.53
2022-10-15T09:29:31.590Z,95903.63
2022-10-15T09:32:00.950Z,95900.94
2022-10-15T09:34:30.033Z,95914.28
2022-10-15T09:37:04.335Z,95897.84
2022-10-15T09:39:36.752Z,95913.38
2022-10-15T09:42:12.301Z,95912.88
2022-10-15T09:44:40.324Z,95915.19
2022-10-15T09:47:17.220Z,95903.59
2022-10-15T09:49:43.647Z,95909.25
2022-10-15T09:52:20.318Z,95910.19
2022-10-15T09:54:49.853Z,95906.56
2022-10-15T09:57:17.508Z,95910.84
2022-10-15T09:59:54.198Z,95910.94
2022-10-15T10:02:22.518Z,95913.25
2022-10-15T10:04:49.368Z,95911.94
2022-10-15T10:07:33.122Z,95926.69
2022-10-15T10:10:05.527Z,95919.34
2022-10-15T10:12:33.709Z,95902.94
2022-10-15T10:15:02.617Z,95922.88
2022-10-15T10:17:29.548Z,95907.97
2022-10-15T10:20:04.801Z,95907.50
2022-10-15T10:22:41.630Z,95911.91
2022-10-15T10:25:28.936Z,95905.09
2022-10-15T10:28:03.861Z,95900.97
2022-10-15T10:30:34.341Z,95904.34
2022-10-15T10:33:01.231Z,95889.13
2022-10-15T10:35:33.522Z,95898.03
2022-10-15T10:38:00.039Z,95900.59
2022-10-15T10:40:30.558Z,95900.59
2022-10-15T10:43:11.540Z,95895.75
2022-10-15T10:45:38.012Z,95894.16
2022-10-15T10:48:20.807Z,95899.00
2022-10-15T10:50:47.644Z,95892.03
2022-10-15T10:53:21.934Z,95893.09
2022-10-15T10:55:49.132Z,95895.75
2022-10-15T10:58:23.412Z,95896.41
2022-10-15T11:00:53.450Z,95898.03
2022-10-15T11:03:22.721Z,95893.00
2022-10-15T11:05:50.919Z,95890.13
2022-10-15T11:08:20.218Z,95892.28
2022-10-15T11:10:59.890Z,95880.53
2022-10-15T11:13:35.043Z,95881.03
2022-10-15T11:16:07.562Z,95884.44
2022-10-15T11:19:13.799Z,95879.66
2022-10-15T11:22:04.937Z,95883.94
2022-10-15T11:24:42.578Z,95881.69
2022-10-15T11:27:35.190Z,95890.97
2022-10-15T11:30:20.144Z,95879.72
2022-10-15T11:33:18.986Z,95880.78
2022-10-15T11:35:53.702Z,95869.34
2022-10-15T11:38:26.178Z,95882.31
2022-10-15T11:41:07.853Z,95885.06
2022-10-15T11:43:51.302Z,95885.72
2022-10-15T11:46:17.646Z,95883.13
2022-10-15T11:49:04.275Z,95881.47
2022-10-15T11:51:39.671Z,95883.13
2022-10-15T11:54:14.589Z,95890.75
2022-10-15T11:56:43.873Z,95882.94
2022-10-15T11:59:16.051Z,95881.34
2022-10-15T12:01:50.042Z,95875.34
2022-10-15T12:04:20.199Z,95873.75
2022-10-15T12:06:52.463Z,95880.69
2022-10-15T12:09:25.326Z,95873.59
2022-10-15T12:11:58.455Z,95878.94
2022-10-15T12:14:27.294Z,95879.44
2022-10-15T12:16:53.639Z,95884.75
2022-10-15T12:19:21.906Z,95877.47
2022-10-15T12:21:54.375Z,95875.03
2022-10-15T12:24:47.371Z,95872.28
2022-10-15T12:27:19.756Z,95881.91
2022-10-15T12:29:50.964Z,95876.34
2022-10-15T12:32:22.168Z,95873.97
2022-10-15T12:34:54.358Z,95869.69
2022-10-15T12:37:23.024Z,95867.09
2022-10-15T12:39:54.903Z,95861.91
2022-10-15T12:42:39.478Z,95853.88
2022-10-15T12:45:08.082Z,95852.84
2022-10-15T12:47:51.082Z,95849.69
2022-10-15T12:50:18.946Z,95845.88
2022-10-15T12:52:51.551Z,95846.63
2022-10-15T12:55:23.269Z,95853.81
2022-10-15T12:57:58.843Z,95846.38
2022-10-15T13:00:28.475Z,95845.88
2022-10-15T13:02:55.929Z,95851.03
2022-10-15T13:05:30.223Z,95854.34
2022-10-15T13:07:58.240Z,95855.25
2022-10-15T13:10:28.146Z,95856.38
2022-10-15T13:12:57.362Z,95848.69
2022-10-15T13:15:25.345Z,95849.22
2022-10-15T13:17:52.500Z,95848.97
2022-10-15T13:20:27.989Z,95852.22
2022-10-15T13:23:18.486Z,95859.34
2022-10-15T13:26:03.977Z,95855.84
2022-10-15T13:28:36.915Z,95862.50
2022-10-15T13:31:05.482Z,95859.84
2022-10-15T13:33:32.156Z,95839.91
2022-10-15T13:36:05.035Z,95855.38
2022-10-15T13:38:31.429Z,95855.81
2022-10-15T13:40:57.834Z,95858.41
2022-10-15T13:43:25.340Z,95850.88
2022-10-15T13:45:55.768Z,95862.06
2022-10-15T13:48:23.413Z,95858.75
2022-10-15T13:51:00.199Z,95858.53
2022-10-15T13:53:31.332Z,95851.22
2022-10-15T13:55:58.857Z,95849.59
2022-10-15T13:58:33.513Z,95848.88
2022-10-15T14:01:01.120Z,95858.53
2022-10-15T14:03:29.107Z,95854.94
2022-10-15T14:05:56.459Z,95853.88
2022-10-15T14:08:24.851Z,95847.44
2022-10-15T14:10:52.865Z,95848.22
2022-10-15T14:13:19.532Z,95844.91
2022-10-15T14:15:52.756Z,95850.56
2022-10-15T14:18:27.955Z,95856.41
2022-10-15T14:20:54.433Z,95845.97
2022-10-15T14:23:22.707Z,95849.47
2022-10-15T14:25:59.881Z,95851.63
2022-10-15T14:28:26.864Z,95862.25
2022-10-15T14:30:53.537Z,95856.91
2022-10-15T14:33:30.040Z,95860.06
2022-10-15T14:36:07.374Z,95865.09
2022-10-15T14:38:33.856Z,95862.97
2022-10-15T14:41:06.339Z,95845.06
2022-10-15T14:43:35.318Z,95866.94
2022-10-15T14:46:03.456Z,95863.00
2022-10-15T14:48:35.051Z,95863.00
2022-10-15T14:51:04.208Z,95870.00
2022-10-15T14:53:37.978Z,95860.81
2022-10-15T14:56:07.853Z,95866.91
2022-10-15T14:58:34.578Z,95867.41
2022-10-15T15:01:02.991Z,95862.06
2022-10-15T15:03:31.073Z,95868.69
2022-10-15T15:05:57.824Z,95871.25
2022-10-15T15:08:24.947Z,95872.78
2022-10-15T15:10:52.771Z,95872.53
2022-10-15T15:13:21.295Z,95879.19
2022-10-15T15:15:47.744Z,95870.28
2022-10-15T15:18:14.284Z,95873.66
2022-10-15T15:20:41.636Z,95872.50
2022-10-15T15:23:12.416Z,95868.47
2022-10-15T15:25:39.986Z,95853.56
2022-10-15T15:28:11.500Z,95860.84
2022-10-15T15:30:40.035Z,95864.56
2022-10-15T15:33:08.603Z,95865.06
2022-10-15T15:35:50.963Z,95870.06
2022-10-15T15:38:18.769Z,95871.88
2022-10-15T15:40:45.144Z,95876.63
2022-10-15T15:43:16.202Z,95876.63
2022-10-15T15:45:43.174Z,95875.94
2022-10-15T15:48:09.615Z,95866.47
2022-10-15T15:50:36.120Z,95876.72
2022-10-15T15:53:03.129Z,95875.69
2022-10-15T15:55:29.633Z,95883.31
2022-10-15T15:57:55.999Z,95894.44
2022-10-15T16:00:22.409Z,95897.34
2022-10-15T16:02:48.802Z,95899.09
2022-10-15T16:05:16.448Z,95904.78
2022-10-15T16:07:43.280Z,95914.16
2022-10-15T16:10:11.945Z,95908.50
2022-10-15T16:12:38.956Z,95910.22
2022-10-15T16:15:07.883Z,95909.28
2022-10-15T16:17:36.873Z,95907.09
2022-10-15T16:20:04.280Z,95903.84
2022-10-15T16:22:30.912Z,95904.56
2022-10-15T16:24:57.291Z,95906.97
2022-10-15T16:27:24.376Z,95902.22
2022-10-15T16:29:51.008Z,95915.41
2022-10-15T16:32:17.429Z,95916.56
2022-10-15T16:34:43.840Z,95924.69
2022-10-15T16:37:10.249Z,95921.09
2022-10-15T16:39:36.706Z,95913.56
2022-10-15T16:42:03.169Z,95912.19
2022-10-15T16:44:29.542Z,95924.91
2022-10-15T16:46:55.888Z,95917.16
2022-10-15T16:49:22.304Z,95913.91
2022-10-15T16:51:48.858Z,95916.44
2022-10-15T16:54:15.721Z,95916.31
2022-10-15T16:56:42.303Z,95912.81
2022-10-15T16:59:08.880Z,95914.81
2022-10-15T17:01:35.992Z,95921.38
2022-10-15T17:04:02.466Z,95919.84
2022-10-15T17:06:29.915Z,95917.06
2022-10-15T17:09:00.237Z,95920.41
2022-10-15T17:11:29.603Z,95933.53
2022-10-15T17:13:57.490Z,95938.16
2022-10-15T17:16:25.553Z,95941.25
2022-10-15T17:21:25.696Z,95945.94
2022-10-15T17:23:53.184Z,95964.56
2022-10-15T17:26:20.811Z,95959.69
2022-10-15T17:28:47.688Z,95955.03
2022-10-15T17:31:16.048Z,95957.31
2022-10-15T17:33:43.016Z,95958.22
2022-10-15T17:36:10.713Z,95949.06
2022-10-15T17:38:37.184Z,95958.38
2022-10-15T17:41:06.361Z,95962.81
2022-10-15T17:43:37.622Z,95956.28
2022-10-15T17:46:17.111Z,95968.44
2022-10-15T17:48:43.536Z,95965.41
2022-10-15T17:51:11.090Z,95963.78
2022-10-15T17:53:37.946Z,95955.44
2022-10-15T17:56:12.235Z,95960.38
2022-10-15T17:58:38.711Z,95954.53
2022-10-15T18:01:05.197Z,95961.09
2022-10-15T18:03:31.585Z,95962.00
2022-10-15T18:05:57.942Z,95965.50
2022-10-15T18:08:24.371Z,95962.84
2022-10-15T18:10:52.739Z,95965.38
2022-10-15T18:13:19.325Z,95966.41
2022-10-15T18:15:49.347Z,95964.19
2022-10-15T18:18:16.743Z,95976.44
2022-10-15T18:20:44.273Z,95971.34
2022-10-15T18:23:11.148Z,95970.53
2022-10-15T18:25:37.683Z,95974.81
2022-10-15T18:28:05.043Z,95976.88
2022-10-15T18:30:31.466Z,95982.97
2022-10-15T18:32:58.465Z,95979.53
2022-10-15T18:35:25.482Z,95976.88
2022-10-15T18:37:51.854Z,95986.47
2022-10-15T18:40:18.308Z,95985.44
2022-10-15T18:42:47.695Z,95981.31
2022-10-15T18:45:14.554Z,95983.38
2022-10-15T18:47:40.928Z,95987.66
2022-10-15T18:50:07.636Z,95991.56
2022-10-15T18:52:39.762Z,95990.94
2022-10-15T18:55:07.459Z,95997.53
2022-10-15T18:57:34.825Z,95992.06
2022-10-15T19:00:01.358Z,95999.44
2022-10-15T19:02:28.086Z,95993.34
2022-10-15T19:04:54.664Z,96001.31
2022-10-15T19:07:21.082Z,96000.31
2022-10-15T19:09:47.468Z,95996.22
2022-10-15T19:12:13.838Z,95999.09
2022-10-15T19:14:40.217Z,95999.34
2022-10-15T19:17:06.631Z,96005.88
2022-10-15T19:19:33.262Z,96010.63
2022-10-15T19:21:59.633Z,96009.19
2022-10-15T19:24:26.024Z,96003.06
2022-10-15T19:26:52.537Z,96012.50
2022-10-15T19:29:19.424Z,96015.38
2022-10-15T19:31:46.896Z,96010.44
2022-10-15T19:34:13.387Z,96009.25
2022-10-15T19:36:41.621Z,96015.38
2022-10-15T19:39:12.525Z,96012.72
2022-10-15T19:41:40.050Z,96025.19
2022-10-15T19:44:08.228Z,96016.25
2022-10-15T19:46:37.942Z,96021.16
2022-10-15T19:49:05.266Z,96011.38
2022-10-15T19:51:31.699Z,96015.63
2022-10-15T19:54:00.244Z,96020.34
2022-10-15T19:56:27.478Z,96017.31
2022-10-15T19:58:54.835Z,96010.81
2022-10-15T20:01:21.328Z,96021.81
2022-10-15T20:03:47.707Z,96019.34
2022-10-15T20:06:14.084Z,96021.38
2022-10-15T20:08:40.537Z,96026.09
2022-10-15T20:11:07.290Z,96034.72
2022-10-15T20:13:34.208Z,96040.22
2022-10-15T20:16:04.835Z,96043.94
2022-10-15T20:18:32.152Z,96050.91
2022-10-15T20:20:58.621Z,96047.50
2022-10-15T20:23:26.520Z,96053.03
2022-10-15T20:25:53.290Z,96060.81
2022-10-15T20:28:20.157Z,96053.69
2022-10-15T20:30:48.565Z,96053.09
2022-10-15T20:33:15.013Z,96052.47
2022-10-15T20:35:41.793Z,96047.81
2022-10-15T20:38:08.198Z,96050.28
2022-10-15T20:40:35.225Z,96046.19
2022-10-15T20:43:01.580Z,96047.06
2022-10-15T20:45:31.220Z,96042.16
2022-10-15T20:47:58.083Z,96044.22
2022-10-15T20:50:26.611Z,96049.94
2022-10-15T20:52:54.108Z,96056.88
2022-10-15T20:55:20.606Z,96051.19
2022-10-15T20:57:47.022Z,96054.84
2022-10-15T21:00:13.636Z,96060.56
2022-10-15T21:02:40.039Z,96059.53
2022-10-15T21:05:06.614Z,96057.09
2022-10-15T21:07:33.115Z,96059.75
2022-10-15T21:09:59.483Z,96068.75
2022-10-15T21:12:26.197Z,96061.00
2022-10-15T21:14:52.946Z,96073.44
2022-10-15T21:17:19.598Z,96067.53
2022-10-15T21:19:50.297Z,96064.28
2022-10-15T21:22:19.292Z,96072.84
2022-10-15T21:24:45.674Z,96076.09
2022-10-15T21:27:12.039Z,96081.63
2022-10-15T21:29:38.866Z,96084.69
2022-10-15T21:32:05.294Z,96077.13
2022-10-15T21:34:31.729Z,96083.03
2022-10-15T21:36:58.212Z,96092.81
2022-10-15T21:39:24.617Z,96089.19
2022-10-15T21:41:51.023Z,96096.94
2022-10-15T21:44:17.731Z,96092.84
2022-10-15T21:46:44.157Z,96085.09
2022-10-15T21:49:10.609Z,96089.78
2022-10-15T21:51:37.519Z,96082.44
2022-10-15T21:54:05.144Z,96090.38
2022-10-15T21:56:32.162Z,96079.78
2022-10-15T21:59:01.766Z,96071.84
2022-10-15T22:01:31.019Z,96074.69
2022-10-15T22:03:58.939Z,96079.38
2022-10-15T22:06:25.360Z,96075.28
2022-10-15T22:08:51.749Z,96073.66
2022-10-15T22:11:19.991Z,96072.84
2022-10-15T22:13:47.853Z,96076.50
2022-10-15T22:16:15.779Z,96086.69
2022-10-15T22:18:42.397Z,96088.31
2022-10-15T22:21:10.395Z,96086.28
2022-10-15T22:23:36.748Z,96089.75
2022-10-15T22:26:03.127Z,96083.03
2022-10-15T22:28:29.729Z,96089.97
2022-10-15T22:30:56.164Z,96091.59
2022-10-15T22:33:22.522Z,96089.56
2022-10-15T22:35:48.917Z,96101.75
2022-10-15T22:38:15.279Z,96097.50
2022-10-15T22:40:41.658Z,96099.53
2022-10-15T22:43:08.011Z,96098.31
2022-10-15T22:45:34.405Z,96103.00
2022-10-15T22:48:00.791Z,96101.38
2022-10-15T22:50:27.169Z,96109.50
2022-10-15T22:52:53.684Z,96101.75
2022-10-15T22:55:20.073Z,96105.84
2022-10-15T22:57:46.916Z,96105.44
2022-10-15T23:00:13.646Z,96098.13
2022-10-15T23:02:40.025Z,96110.94
2022-10-15T23:05:06.536Z,96103.81
2022-10-15T23:07:32.916Z,96106.66
2022-10-15T23:09:59.280Z,96100.53
2022-10-15T23:12:25.878Z,96106.84
2022-10-15T23:14:52.993Z,96111.13
2022-10-15T23:17:19.473Z,96114.38
2022-10-15T23:19:45.928Z,96113.34
2022-10-15T23:22:12.299Z,96118.06
2022-10-15T23:24:38.699Z,96109.88
2022-10-15T23:27:05.083Z,96112.53
2022-10-15T23:29:31.472Z,96109.88
2022-10-15T23:31:57.835Z,96119.66
2022-10-15T23:34:25.159Z,96107.63
2022-10-15T23:36:51.873Z,96112.13
2022-10-15T23:39:19.567Z,96116.81
2022-10-15T23:41:46.218Z,96116.00
2022-10-15T23:44:13.133Z,96118.84
2022-10-15T23:46:40.003Z,96115.97
2022-10-15T23:49:06.394Z,96119.03
2022-10-15T23:51:34.686Z,96118.00
2022-10-15T23:54:01.966Z,96114.50
2022-10-15T23:56:28.834Z,96115.53
2022-10-15T23:58:58.731Z,96114.91
